Time;durP1;ratioP1;P1;durP2;ratioP2;P2;SDS_P1;SDS_P2;PMS_P1;PMS_P2;Temp;Humidity;BMP_temperature;BMP_pressure;BME280_temperature;BME280_humidity;BME280_pressure;Samples;Min_cycle;Max_cycle;Signal;HPM_P1;HPM_P2
2021/12/04 00:01:27;;;;;;;;;;;2.30;21.70;;;;;;4097817;28;19936;-46
2021/12/04 00:03:29;;;;;;;;;;;2.30;22.80;;;;;;4114168;28;19935;-46
2021/12/04 00:05:31;;;;;;;;;;;2.30;22.10;;;;;;4114777;28;19988;-46
2021/12/04 00:07:34;;;;;;;;;;;2.30;22.80;;;;;;4116820;28;19965;-46
2021/12/04 00:09:37;;;;;;;;;;;2.30;22.90;;;;;;4110930;28;20271;-46
2021/12/04 00:11:41;;;;;;;;;;;2.40;22.50;;;;;;4115329;28;19946;-47
2021/12/04 00:13:43;;;;;;;;;;;2.30;22.80;;;;;;4111392;28;19943;-51
2021/12/04 00:15:45;;;;;;;;;;;2.40;22.90;;;;;;4109494;28;19945;-46
2021/12/04 00:17:47;;;;;;;;;;;2.40;22.90;;;;;;4108574;28;20332;-47
2021/12/04 00:19:49;;;;;;;;;;;2.40;22.90;;;;;;4112457;28;20381;-48
2021/12/04 00:21:51;;;;;;;;;;;2.40;22.90;;;;;;4092862;28;20019;-51
2021/12/04 00:23:53;;;;;;;;;;;2.40;22.90;;;;;;4108419;28;19981;-51
2021/12/04 00:25:54;;;;;;;;;;;2.40;21.30;;;;;;4108732;28;20044;-46
2021/12/04 00:27:56;;;;;;;;;;;2.40;20.50;;;;;;4111459;28;20659;-49
2021/12/04 00:29:58;;;;;;;;;;;2.40;20.40;;;;;;4108300;28;19973;-49
2021/12/04 00:32:08;;;;;;;;;;;2.40;20.10;;;;;;4107769;28;19936;-47
2021/12/04 00:34:10;;;;;;;;;;;2.40;19.40;;;;;;4090007;28;20039;-46
2021/12/04 00:50:04;;;;;;;;;;;2.50;13.60;;;;;;4108589;28;19983;-46
2021/12/04 00:52:06;;;;;;;;;;;2.40;12.90;;;;;;4091448;28;19992;-50
2021/12/04 00:54:10;;;;;;;;;;;2.40;12.90;;;;;;4092129;28;19941;-50
2021/12/04 00:56:12;;;;;;;;;;;2.40;13.10;;;;;;4112371;28;19943;-46
2021/12/04 00:58:13;;;;;;;;;;;2.30;14.00;;;;;;4094923;28;20012;-46
2021/12/04 01:00:15;;;;;;;;;;;2.30;14.50;;;;;;4109529;28;19998;-50
2021/12/04 01:02:18;;;;;;;;;;;2.30;14.60;;;;;;4112567;28;20395;-46
2021/12/04 01:04:20;;;;;;;;;;;2.30;15.00;;;;;;4109998;28;19987;-45
2021/12/04 01:06:22;;;;;;;;;;;2.30;15.00;;;;;;4091376;28;19945;-49
2021/12/04 01:08:24;;;;;;;;;;;2.40;14.20;;;;;;4092797;28;20381;-48
2021/12/04 01:10:27;;;;;;;;;;;2.30;14.50;;;;;;4110811;28;19946;-48
2021/12/04 01:12:29;;;;;;;;;;;2.30;14.10;;;;;;4096260;28;20376;-47
2021/12/04 01:14:32;;;;;;;;;;;2.30;14.40;;;;;;4093415;28;19985;-48
2021/12/04 01:16:33;;;;;;;;;;;2.30;14.70;;;;;;4109260;28;19951;-47
2021/12/04 01:18:35;;;;;;;;;;;2.30;14.40;;;;;;4110564;28;20474;-50
2021/12/04 01:20:39;;;;;;;;;;;2.20;14.10;;;;;;4094785;28;20359;-47
2021/12/04 01:22:40;;;;;;;;;;;2.30;14.00;;;;;;4111630;28;20689;-52
2021/12/04 01:24:42;;;;;;;;;;;2.20;13.70;;;;;;4107030;28;19946;-49
2021/12/04 01:26:45;;;;;;;;;;;2.20;13.50;;;;;;4110040;28;20366;-53
2021/12/04 01:28:47;;;;;;;;;;;2.20;14.20;;;;;;4096630;28;19966;-49
2021/12/04 01:30:48;;;;;;;;;;;2.10;14.20;;;;;;4110048;28;19963;-50
2021/12/04 01:32:50;;;;;;;;;;;2.10;14.30;;;;;;4112899;28;19982;-50
2021/12/04 01:34:54;;;;;;;;;;;2.10;14.70;;;;;;4094951;28;20428;-49
2021/12/04 01:36:56;;;;;;;;;;;2.10;14.50;;;;;;4107740;28;19957;-50
2021/12/04 01:38:59;;;;;;;;;;;2.10;14.60;;;;;;4111682;28;19985;-52
2021/12/04 01:41:00;;;;;;;;;;;2.10;15.40;;;;;;4112692;28;20033;-47
2021/12/04 01:43:02;;;;;;;;;;;2.10;15.50;;;;;;4111227;28;19945;-50
2021/12/04 01:45:05;;;;;;;;;;;2.10;15.80;;;;;;4095015;28;19947;-50
2021/12/04 01:47:11;;;;;;;;;;;2.00;15.30;;;;;;4095388;28;19961;-53
2021/12/04 01:49:13;;;;;;;;;;;2.00;15.40;;;;;;4109248;28;19994;-50
2021/12/04 01:51:15;;;;;;;;;;;2.00;16.20;;;;;;4107414;28;20413;-46
2021/12/04 01:53:17;;;;;;;;;;;2.00;15.20;;;;;;4110776;28;19943;-49
2021/12/04 01:55:18;;;;;;;;;;;2.00;15.30;;;;;;4110297;28;19955;-47
2021/12/04 01:57:21;;;;;;;;;;;2.00;15.50;;;;;;4107012;28;20451;-51
2021/12/04 01:59:22;;;;;;;;;;;2.00;15.50;;;;;;4109999;28;20050;-53
2021/12/04 02:01:24;;;;;;;;;;;2.00;16.20;;;;;;4095821;28;19941;-51
2021/12/04 02:03:26;;;;;;;;;;;1.90;16.80;;;;;;4094172;28;19942;-49
2021/12/04 02:05:28;;;;;;;;;;;1.90;17.30;;;;;;4109200;28;19944;-49
2021/12/04 02:07:30;;;;;;;;;;;1.90;17.20;;;;;;4107966;28;19967;-48
2021/12/04 02:09:33;;;;;;;;;;;1.90;18.00;;;;;;4093543;28;19949;-50
2021/12/04 02:11:35;;;;;;;;;;;1.90;17.90;;;;;;4103625;28;19942;-50
2021/12/04 02:13:37;;;;;;;;;;;1.90;17.80;;;;;;4095515;28;20023;-51
2021/12/04 02:15:39;;;;;;;;;;;1.80;17.60;;;;;;4111319;28;19941;-52
2021/12/04 02:17:41;;;;;;;;;;;1.80;18.20;;;;;;4110872;28;19962;-48
2021/12/04 02:19:45;;;;;;;;;;;1.80;18.80;;;;;;4109598;28;20012;-47
2021/12/04 02:21:47;;;;;;;;;;;1.80;18.70;;;;;;4104680;28;20056;-47
2021/12/04 02:23:49;;;;;;;;;;;1.80;18.70;;;;;;4109452;28;19983;-51
2021/12/04 02:25:51;;;;;;;;;;;1.80;18.70;;;;;;4095925;28;19966;-47
2021/12/04 02:27:53;;;;;;;;;;;1.80;19.00;;;;;;4096898;28;19985;-47
2021/12/04 02:29:55;;;;;;;;;;;1.80;18.90;;;;;;4109856;28;19940;-49
2021/12/04 02:31:58;;;;;;;;;;;1.80;18.80;;;;;;4109696;28;19950;-50
2021/12/04 02:34:00;;;;;;;;;;;1.80;19.00;;;;;;4108928;28;20599;-52
2021/12/04 02:36:02;;;;;;;;;;;1.80;18.80;;;;;;4094952;28;19939;-50
2021/12/04 02:38:04;;;;;;;;;;;1.70;18.70;;;;;;4107476;28;19958;-55
2021/12/04 02:40:08;;;;;;;;;;;1.70;18.50;;;;;;4087973;28;20284;-49
2021/12/04 02:42:21;;;;;;;;;;;1.70;18.70;;;;;;4108508;28;20310;-47
2021/12/04 02:44:30;;;;;;;;;;;1.70;18.70;;;;;;4095701;28;20394;-51
2021/12/04 02:46:33;;;;;;;;;;;1.70;19.10;;;;;;4110236;28;19951;-50
2021/12/04 02:48:36;;;;;;;;;;;1.70;18.80;;;;;;4109759;28;20473;-51
2021/12/04 02:50:38;;;;;;;;;;;1.70;19.30;;;;;;4113980;28;19950;-47
2021/12/04 02:52:40;;;;;;;;;;;1.70;19.40;;;;;;4113062;28;20007;-49
2021/12/04 02:54:42;;;;;;;;;;;1.70;19.00;;;;;;4106235;28;20340;-52
2021/12/04 02:56:48;;;;;;;;;;;1.70;18.60;;;;;;4089929;28;19946;-51
2021/12/04 02:58:54;;;;;;;;;;;1.70;18.90;;;;;;4112905;28;19992;-47
2021/12/04 03:00:56;;;;;;;;;;;1.70;19.00;;;;;;4109202;28;20061;-54
2021/12/04 03:02:58;;;;;;;;;;;1.70;18.90;;;;;;4110796;28;20037;-51
2021/12/04 03:05:02;;;;;;;;;;;1.70;19.10;;;;;;4109068;28;19936;-52
2021/12/04 03:07:04;;;;;;;;;;;1.60;18.50;;;;;;4106455;28;20341;-51
2021/12/04 03:09:06;;;;;;;;;;;1.60;18.40;;;;;;4109935;28;19970;-49
2021/12/04 03:11:08;;;;;;;;;;;1.60;18.50;;;;;;4097007;28;20660;-51
2021/12/04 03:13:10;;;;;;;;;;;1.60;18.30;;;;;;4109183;28;19945;-48
2021/12/04 03:15:12;;;;;;;;;;;1.60;18.40;;;;;;4109053;28;20001;-49
2021/12/04 03:17:17;;;;;;;;;;;1.60;18.90;;;;;;4107570;28;19963;-47
2021/12/04 03:19:19;;;;;;;;;;;1.50;18.80;;;;;;4109535;28;19947;-53
2021/12/04 03:21:21;;;;;;;;;;;1.50;19.00;;;;;;4107223;28;19949;-46
2021/12/04 03:23:29;;;;;;;;;;;1.50;19.30;;;;;;4107073;28;19953;-48
2021/12/04 03:25:32;;;;;;;;;;;1.50;19.20;;;;;;4109994;28;20358;-49
2021/12/04 03:27:34;;;;;;;;;;;1.50;19.00;;;;;;4109836;28;19979;-48
2021/12/04 03:29:42;;;;;;;;;;;1.50;18.90;;;;;;4107236;28;19940;-48
2021/12/04 03:41:24;;;;;;;;;;;1.50;19.70;;;;;;4085046;28;20009;-49
2021/12/04 03:43:29;;;;;;;;;;;1.50;20.10;;;;;;4091566;28;20386;-47
2021/12/04 03:45:33;;;;;;;;;;;1.60;21.00;;;;;;4110162;28;19951;-49
2021/12/04 03:47:40;;;;;;;;;;;1.60;20.30;;;;;;4095697;28;19957;-48
2021/12/04 03:49:42;;;;;;;;;;;1.60;21.10;;;;;;4092056;28;20418;-48
2021/12/04 03:51:44;;;;;;;;;;;1.60;20.30;;;;;;4090653;28;20384;-48
2021/12/04 03:53:46;;;;;;;;;;;1.60;20.90;;;;;;4094780;28;19943;-53
2021/12/04 03:55:49;;;;;;;;;;;1.60;20.40;;;;;;4112982;28;19986;-49
2021/12/04 03:57:52;;;;;;;;;;;1.60;20.60;;;;;;4111376;28;19992;-52
2021/12/04 03:59:53;;;;;;;;;;;1.60;20.20;;;;;;4111403;28;19956;-50
2021/12/04 04:01:55;;;;;;;;;;;1.60;21.00;;;;;;4113709;28;19946;-50
2021/12/04 04:03:57;;;;;;;;;;;1.60;20.40;;;;;;4101271;28;20281;-49
2021/12/04 04:05:59;;;;;;;;;;;1.60;20.40;;;;;;4100169;28;20459;-50
2021/12/04 04:08:01;;;;;;;;;;;1.50;20.30;;;;;;4099751;28;22804;-50
2021/12/04 04:10:03;;;;;;;;;;;1.60;20.20;;;;;;4094813;28;19985;-50
2021/12/04 04:12:05;;;;;;;;;;;1.50;20.20;;;;;;4095440;28;21161;-47
2021/12/04 04:14:07;;;;;;;;;;;1.60;20.70;;;;;;4113611;28;19945;-49
2021/12/04 04:16:10;;;;;;;;;;;1.60;20.50;;;;;;4112623;28;19949;-48
2021/12/04 04:18:12;;;;;;;;;;;1.60;20.60;;;;;;4095962;28;19967;-47
2021/12/04 04:20:15;;;;;;;;;;;1.60;20.80;;;;;;4112043;28;20464;-47
2021/12/04 04:22:17;;;;;;;;;;;1.60;20.90;;;;;;4094774;28;19944;-50
2021/12/04 04:24:19;;;;;;;;;;;1.50;20.90;;;;;;4113096;28;19958;-53
2021/12/04 04:26:20;;;;;;;;;;;1.50;20.70;;;;;;4115248;28;20439;-50
2021/12/04 04:28:22;;;;;;;;;;;1.60;21.00;;;;;;4111510;28;19956;-49
2021/12/04 04:30:25;;;;;;;;;;;1.60;21.60;;;;;;4097148;28;20010;-47
2021/12/04 04:32:26;;;;;;;;;;;1.60;21.00;;;;;;4096674;28;19984;-49
2021/12/04 04:34:37;;;;;;;;;;;1.60;22.20;;;;;;4112768;28;19940;-50
2021/12/04 04:59:48;;;;;;;;;;;1.60;22.40;;;;;;4110333;28;20330;-51
2021/12/04 05:02:04;;;;;;;;;;;1.60;22.50;;;;;;4091612;28;20030;-50
2021/12/04 05:11:15;;;;;;;;;;;1.60;23.40;;;;;;4112633;28;19941;-48
2021/12/04 05:13:26;;;;;;;;;;;1.60;24.10;;;;;;4093526;28;20443;-54
2021/12/04 05:19:54;;;;;;;;;;;1.70;23.80;;;;;;4108486;28;19938;-48
2021/12/04 05:21:56;;;;;;;;;;;1.70;24.30;;;;;;4095484;28;19986;-52
2021/12/04 05:23:58;;;;;;;;;;;1.70;24.00;;;;;;4091592;28;19954;-51
2021/12/04 05:26:00;;;;;;;;;;;1.70;24.30;;;;;;4096869;28;19947;-47
2021/12/04 05:28:03;;;;;;;;;;;1.70;24.40;;;;;;4112595;28;19958;-48
2021/12/04 05:30:05;;;;;;;;;;;1.70;25.10;;;;;;4111405;28;19947;-51
2021/12/04 05:32:08;;;;;;;;;;;1.70;24.40;;;;;;4112221;28;20451;-52
2021/12/04 05:34:10;;;;;;;;;;;1.70;25.60;;;;;;4093636;28;19939;-48
2021/12/04 05:36:11;;;;;;;;;;;1.70;25.80;;;;;;4096636;28;20440;-47
2021/12/04 05:38:17;;;;;;;;;;;1.70;27.50;;;;;;4091925;28;20342;-48
2021/12/04 05:40:19;;;;;;;;;;;1.80;29.20;;;;;;4112683;28;19981;-49
2021/12/04 05:42:20;;;;;;;;;;;1.80;33.00;;;;;;4095187;28;19935;-47
2021/12/04 05:44:25;;;;;;;;;;;1.80;35.50;;;;;;4097420;28;20440;-47
2021/12/04 05:46:33;;;;;;;;;;;1.80;36.10;;;;;;4110570;28;20320;-51
2021/12/04 05:55:24;;;;;;;;;;;1.90;44.40;;;;;;4107059;28;19981;-48
2021/12/04 05:57:18;;;;;;;;;;;1.90;45.00;;;;;;4107515;28;19951;-50
2021/12/04 05:59:19;;;;;;;;;;;1.90;47.00;;;;;;4110651;28;19937;-49
2021/12/04 06:01:22;;;;;;;;;;;1.90;48.40;;;;;;4112850;28;19985;-48
2021/12/04 06:03:24;;;;;;;;;;;1.90;49.70;;;;;;4112741;28;19939;-51
2021/12/04 06:05:26;;;;;;;;;;;1.90;50.70;;;;;;4096088;28;19942;-46
2021/12/04 06:07:28;;;;;;;;;;;1.90;51.20;;;;;;4094942;28;20494;-52
2021/12/04 06:09:29;;;;;;;;;;;1.90;52.00;;;;;;4091715;28;20408;-52
2021/12/04 06:11:32;;;;;;;;;;;1.90;53.00;;;;;;4093320;28;19943;-50
2021/12/04 06:13:34;;;;;;;;;;;1.90;53.70;;;;;;4107658;28;20423;-51
2021/12/04 06:15:36;;;;;;;;;;;1.90;54.00;;;;;;4090529;28;19941;-51
2021/12/04 06:17:39;;;;;;;;;;;1.90;54.70;;;;;;4092566;28;20555;-53
2021/12/04 06:24:22;;;;;;;;;;;1.90;55.70;;;;;;4108177;28;19946;-54
2021/12/04 06:26:24;;;;;;;;;;;1.90;55.60;;;;;;4106783;28;19954;-53
2021/12/04 06:28:26;;;;;;;;;;;1.90;55.90;;;;;;4105775;28;19955;-49
2021/12/04 06:30:33;;;;;;;;;;;1.90;56.90;;;;;;4112304;28;20329;-51
2021/12/04 06:32:36;;;;;;;;;;;1.90;56.90;;;;;;4090053;28;20525;-46
2021/12/04 06:34:38;;;;;;;;;;;1.90;57.00;;;;;;4096001;28;20397;-49
2021/12/04 06:36:40;;;;;;;;;;;2.00;57.10;;;;;;4113982;28;19966;-50
2021/12/04 06:38:42;;;;;;;;;;;1.90;56.90;;;;;;4093707;28;19989;-50
2021/12/04 06:40:44;;;;;;;;;;;2.00;57.40;;;;;;4094998;28;19959;-47
2021/12/04 06:42:46;;;;;;;;;;;2.00;57.00;;;;;;4106956;28;19941;-47
2021/12/04 06:44:49;;;;;;;;;;;2.00;57.10;;;;;;4109209;28;19936;-48
2021/12/04 06:46:51;;;;;;;;;;;2.00;57.00;;;;;;4106494;28;19960;-51
2021/12/04 06:51:24;;;;;;;;;;;2.00;56.90;;;;;;4106950;28;19949;-46
2021/12/04 06:53:24;;;;;;;;;;;2.00;56.90;;;;;;4105430;28;19938;-49
2021/12/04 06:55:30;;;;;;;;;;;2.00;56.50;;;;;;4108553;28;20036;-50
2021/12/04 06:57:37;;;;;;;;;;;2.00;56.90;;;;;;4105157;28;20347;-53
2021/12/04 06:59:40;;;;;;;;;;;2.00;57.00;;;;;;4109922;28;19941;-48
2021/12/04 07:01:42;;;;;;;;;;;2.10;56.90;;;;;;4107259;28;19970;-52
2021/12/04 07:03:44;;;;;;;;;;;2.00;56.50;;;;;;4108100;28;20541;-52
2021/12/04 07:05:46;;;;;;;;;;;2.10;56.00;;;;;;4107910;28;19967;-47
2021/12/04 07:07:51;;;;;;;;;;;2.10;56.80;;;;;;4108856;28;20198;-47
2021/12/04 07:09:52;;;;;;;;;;;2.10;56.00;;;;;;4090900;28;20150;-53
2021/12/04 07:11:54;;;;;;;;;;;2.10;56.60;;;;;;4109850;28;19943;-46
2021/12/04 07:13:57;;;;;;;;;;;2.10;56.70;;;;;;4110028;28;20237;-50
2021/12/04 07:16:05;;;;;;;;;;;2.10;56.30;;;;;;4109003;28;19945;-49
2021/12/04 07:18:07;;;;;;;;;;;2.10;56.70;;;;;;4111220;28;20326;-49
2021/12/04 07:20:09;;;;;;;;;;;2.10;56.50;;;;;;4111427;28;20041;-50
2021/12/04 07:22:12;;;;;;;;;;;2.10;57.40;;;;;;4093475;28;19958;-51
2021/12/04 07:24:14;;;;;;;;;;;2.10;56.90;;;;;;4095091;28;20027;-49
2021/12/04 07:26:17;;;;;;;;;;;2.20;56.50;;;;;;4113367;28;19938;-50
2021/12/04 07:28:19;;;;;;;;;;;2.10;57.10;;;;;;4110207;28;20081;-53
2021/12/04 07:30:22;;;;;;;;;;;2.20;56.90;;;;;;4115347;28;19945;-48
2021/12/04 07:32:25;;;;;;;;;;;2.10;57.20;;;;;;4114399;28;19957;-51
2021/12/04 07:34:27;;;;;;;;;;;2.20;57.10;;;;;;4117033;28;20370;-55
2021/12/04 07:36:28;;;;;;;;;;;2.20;56.90;;;;;;4095384;28;20370;-50
2021/12/04 07:38:30;;;;;;;;;;;2.20;57.10;;;;;;4112817;28;19962;-49
2021/12/04 07:40:33;;;;;;;;;;;2.20;57.30;;;;;;4112588;28;19998;-52
2021/12/04 07:42:35;;;;;;;;;;;2.10;57.80;;;;;;4096919;28;19956;-53
2021/12/04 07:44:37;;;;;;;;;;;2.10;57.40;;;;;;4099649;28;19943;-51
2021/12/04 07:46:39;;;;;;;;;;;2.10;58.70;;;;;;4098784;28;19998;-50
2021/12/04 07:48:41;;;;;;;;;;;2.20;57.20;;;;;;4113155;28;19958;-53
2021/12/04 07:50:43;;;;;;;;;;;2.10;57.20;;;;;;4114047;28;19947;-52
2021/12/04 07:52:45;;;;;;;;;;;2.10;57.20;;;;;;4112919;28;19943;-47
2021/12/04 07:54:48;;;;;;;;;;;2.20;57.10;;;;;;4111104;28;19937;-47
2021/12/04 07:56:50;;;;;;;;;;;2.10;57.20;;;;;;4114453;28;20753;-49
2021/12/04 07:58:52;;;;;;;;;;;2.20;57.30;;;;;;4113947;28;19989;-48
2021/12/04 08:00:53;;;;;;;;;;;2.20;57.20;;;;;;4112495;28;19968;-49
2021/12/04 08:02:55;;;;;;;;;;;2.20;57.30;;;;;;4113891;28;19941;-53
2021/12/04 08:04:58;;;;;;;;;;;2.20;57.20;;;;;;4113902;28;19946;-51
2021/12/04 08:07:00;;;;;;;;;;;2.30;57.40;;;;;;4113549;28;20607;-49
2021/12/04 08:09:02;;;;;;;;;;;2.30;58.20;;;;;;4110552;28;20316;-46
2021/12/04 08:11:05;;;;;;;;;;;2.30;58.50;;;;;;4111299;28;19946;-49
2021/12/04 08:13:07;;;;;;;;;;;2.30;58.70;;;;;;4113401;28;19938;-49
2021/12/04 08:15:10;;;;;;;;;;;2.40;59.80;;;;;;4099006;28;19953;-48
2021/12/04 08:17:12;;;;;;;;;;;2.40;59.30;;;;;;4095728;28;19955;-49
2021/12/04 08:19:14;;;;;;;;;;;2.40;59.90;;;;;;4095305;28;19949;-47
2021/12/04 08:21:16;;;;;;;;;;;2.40;58.80;;;;;;4093680;28;19957;-47
2021/12/04 08:23:18;;;;;;;;;;;2.40;59.40;;;;;;4111437;28;20017;-48
2021/12/04 08:25:20;;;;;;;;;;;2.40;59.10;;;;;;4110223;28;19971;-47
2021/12/04 08:27:21;;;;;;;;;;;2.40;59.50;;;;;;4094130;28;20520;-47
2021/12/04 08:29:23;;;;;;;;;;;2.40;59.40;;;;;;4112160;28;19946;-56
2021/12/04 08:31:25;;;;;;;;;;;2.40;58.40;;;;;;4095928;28;19938;-49
2021/12/04 08:33:27;;;;;;;;;;;2.50;58.60;;;;;;4094365;28;19996;-49
2021/12/04 08:35:31;;;;;;;;;;;2.50;60.00;;;;;;4096469;28;20330;-49
2021/12/04 08:37:33;;;;;;;;;;;2.50;58.20;;;;;;4110987;28;20060;-50
2021/12/04 08:39:35;;;;;;;;;;;2.50;58.80;;;;;;4109007;28;19952;-48
2021/12/04 08:41:37;;;;;;;;;;;2.50;59.00;;;;;;4110162;28;20012;-47
2021/12/04 08:43:39;;;;;;;;;;;2.50;58.40;;;;;;4110473;28;19941;-49
2021/12/04 08:45:41;;;;;;;;;;;2.50;58.60;;;;;;4112053;28;20414;-47
2021/12/04 08:47:44;;;;;;;;;;;2.60;58.50;;;;;;4112251;28;20368;-47
2021/12/04 08:49:46;;;;;;;;;;;2.60;58.80;;;;;;4110267;28;19946;-52
2021/12/04 08:51:48;;;;;;;;;;;2.60;58.90;;;;;;4094916;28;19991;-47
2021/12/04 08:53:51;;;;;;;;;;;2.60;58.90;;;;;;4111048;28;19987;-46
2021/12/04 08:55:53;;;;;;;;;;;2.60;59.20;;;;;;4109408;28;19986;-50
2021/12/04 08:57:55;;;;;;;;;;;2.70;59.20;;;;;;4106404;28;19961;-48
2021/12/04 08:59:57;;;;;;;;;;;2.70;58.90;;;;;;4098072;28;19944;-48
2021/12/04 09:02:00;;;;;;;;;;;2.70;58.70;;;;;;4096937;28;19957;-52
2021/12/04 09:04:05;;;;;;;;;;;2.70;59.30;;;;;;4095997;28;20032;-49
2021/12/04 09:06:07;;;;;;;;;;;2.80;58.90;;;;;;4092723;28;19990;-49
2021/12/04 09:08:09;;;;;;;;;;;2.80;58.80;;;;;;4113292;28;20001;-54
2021/12/04 09:10:11;;;;;;;;;;;2.80;58.70;;;;;;4115354;28;19940;-55
2021/12/04 09:12:14;;;;;;;;;;;2.80;58.70;;;;;;4093230;28;19941;-52
2021/12/04 09:14:16;;;;;;;;;;;2.90;58.40;;;;;;4113823;28;19943;-51
2021/12/04 09:16:18;;;;;;;;;;;2.90;58.00;;;;;;4114620;28;19942;-52
2021/12/04 09:18:20;;;;;;;;;;;2.90;57.80;;;;;;4114255;28;20405;-51
2021/12/04 09:20:22;;;;;;;;;;;2.90;57.60;;;;;;4113443;28;19946;-51
2021/12/04 09:22:29;;;;;;;;;;;2.90;58.80;;;;;;4094160;28;20058;-52
2021/12/04 09:24:40;;;;;;;;;;;2.90;57.90;;;;;;4113792;28;19940;-49
2021/12/04 09:27:09;;;;;;;;;;;3.00;57.90;;;;;;4097753;28;19957;-53
2021/12/04 10:18:05;;;;;;;;;;;3.40;56.10;;;;;;4113947;28;19962;-49
2021/12/04 10:22:38;;;;;;;;;;;3.40;53.70;;;;;;4111922;28;20096;-51
2021/12/04 10:33:39;;;;;;;;;;;3.30;54.00;;;;;;4112349;28;19962;-51
2021/12/04 10:35:42;;;;;;;;;;;3.40;54.20;;;;;;4095707;28;20373;-51
2021/12/04 10:37:50;;;;;;;;;;;3.40;53.70;;;;;;4091617;28;20506;-52
2021/12/04 10:39:54;;;;;;;;;;;3.40;53.50;;;;;;4095563;28;19937;-49
2021/12/04 10:41:56;;;;;;;;;;;3.40;53.60;;;;;;4107979;28;19944;-51
2021/12/04 10:44:11;;;;;;;;;;;3.40;54.00;;;;;;4108845;28;20029;-50
2021/12/04 10:46:14;;;;;;;;;;;3.50;54.60;;;;;;4114167;28;19942;-49
2021/12/04 10:48:20;;;;;;;;;;;3.50;54.10;;;;;;4094182;28;20433;-50
2021/12/04 10:54:52;;;;;;;;;;;3.50;54.50;;;;;;4110344;28;19972;-50
2021/12/04 11:19:33;;;;;;;;;;;3.70;56.00;;;;;;4115013;28;19939;-54
2021/12/04 11:24:32;;;;;;;;;;;3.80;56.90;;;;;;4108219;28;20026;-51
2021/12/04 11:38:44;;;;;;;;;;;3.90;56.70;;;;;;4116161;28;20443;-51
2021/12/04 11:41:15;;;;;;;;;;;3.90;57.80;;;;;;4113414;28;19954;-53
2021/12/04 11:43:19;;;;;;;;;;;4.00;56.90;;;;;;4114506;28;20007;-53
2021/12/04 11:45:27;;;;;;;;;;;4.00;57.80;;;;;;4097328;28;19944;-49
2021/12/04 11:47:39;;;;;;;;;;;4.00;56.80;;;;;;4114465;28;19951;-53
2021/12/04 11:49:41;;;;;;;;;;;4.00;57.00;;;;;;4097524;28;19945;-54
2021/12/04 11:51:56;;;;;;;;;;;4.00;56.90;;;;;;4112179;28;20002;-52
2021/12/04 11:53:58;;;;;;;;;;;4.10;57.20;;;;;;4096082;28;19940;-52
2021/12/04 11:56:04;;;;;;;;;;;4.10;57.10;;;;;;4098741;28;19940;-50
2021/12/04 11:58:20;;;;;;;;;;;4.10;56.80;;;;;;4113301;28;19990;-53
2021/12/04 12:00:28;;;;;;;;;;;4.20;57.20;;;;;;4097582;28;19946;-53
2021/12/04 12:02:33;;;;;;;;;;;4.10;57.40;;;;;;4116345;28;19983;-52
2021/12/04 12:04:37;;;;;;;;;;;4.20;58.20;;;;;;4115320;28;19946;-49
2021/12/04 12:06:41;;;;;;;;;;;4.20;58.10;;;;;;4116895;28;19945;-53
2021/12/04 12:08:45;;;;;;;;;;;4.20;57.90;;;;;;4116618;28;20034;-53
2021/12/04 12:10:49;;;;;;;;;;;4.20;58.00;;;;;;4099540;28;19941;-55
2021/12/04 12:12:53;;;;;;;;;;;4.20;57.90;;;;;;4111126;28;19942;-52
2021/12/04 12:14:58;;;;;;;;;;;4.20;58.30;;;;;;4098074;28;20151;-49
2021/12/04 12:17:00;;;;;;;;;;;4.20;58.30;;;;;;4103028;28;19951;-50
2021/12/04 12:19:12;;;;;;;;;;;4.20;58.20;;;;;;4110572;28;19995;-51
2021/12/04 12:21:17;;;;;;;;;;;4.20;59.10;;;;;;4113776;28;20431;-51
2021/12/04 12:23:23;;;;;;;;;;;4.20;58.70;;;;;;4095319;28;20032;-50
2021/12/04 12:37:21;;;;;;;;;;;4.30;59.00;;;;;;4112453;28;19957;-50
2021/12/04 12:39:22;;;;;;;;;;;4.30;58.70;;;;;;4111749;28;20003;-52
2021/12/04 12:41:37;;;;;;;;;;;4.30;59.40;;;;;;4112563;28;19987;-55
2021/12/04 12:43:39;;;;;;;;;;;4.30;59.00;;;;;;4092989;28;19953;-57
2021/12/04 12:45:57;;;;;;;;;;;4.30;58.80;;;;;;4096672;28;20016;-52
2021/12/04 12:47:59;;;;;;;;;;;4.30;59.10;;;;;;4096827;28;19952;-51
2021/12/04 12:50:01;;;;;;;;;;;4.30;58.80;;;;;;4111510;28;20358;-53
2021/12/04 12:52:08;;;;;;;;;;;4.30;59.60;;;;;;4114552;28;19940;-58
2021/12/04 12:54:10;;;;;;;;;;;4.30;59.00;;;;;;4112715;28;19935;-53
2021/12/04 12:56:13;;;;;;;;;;;4.30;60.10;;;;;;4112908;28;19944;-48
2021/12/04 12:58:15;;;;;;;;;;;4.30;59.10;;;;;;4112199;28;20005;-54
2021/12/04 13:12:02;;;;;;;;;;;4.40;60.30;;;;;;4112885;28;20419;-51
2021/12/04 13:14:29;;;;;;;;;;;4.40;59.40;;;;;;4099819;28;20302;-51
2021/12/04 13:16:32;;;;;;;;;;;4.30;59.30;;;;;;4091364;28;19956;-50
2021/12/04 13:18:36;;;;;;;;;;;4.30;60.00;;;;;;4113210;28;20022;-50
2021/12/04 13:20:38;;;;;;;;;;;4.30;61.30;;;;;;4111847;28;19943;-51
2021/12/04 13:22:40;;;;;;;;;;;4.30;61.00;;;;;;4109421;28;19938;-50
2021/12/04 13:24:42;;;;;;;;;;;4.30;61.60;;;;;;4109087;28;19995;-53
2021/12/04 13:26:46;;;;;;;;;;;4.30;62.30;;;;;;4111457;28;20431;-50
2021/12/04 13:28:50;;;;;;;;;;;4.30;62.50;;;;;;4110849;28;20427;-50
2021/12/04 13:30:52;;;;;;;;;;;4.30;64.00;;;;;;4112815;28;19940;-52
2021/12/04 13:32:53;;;;;;;;;;;4.30;63.90;;;;;;4115227;28;19942;-52
2021/12/04 13:35:01;;;;;;;;;;;4.40;66.00;;;;;;4114099;28;19964;-49
2021/12/04 13:37:04;;;;;;;;;;;4.40;65.20;;;;;;4113169;28;19943;-50
2021/12/04 13:39:13;;;;;;;;;;;4.50;65.30;;;;;;4111931;28;19940;-52
2021/12/04 13:41:15;;;;;;;;;;;4.40;66.40;;;;;;4096774;28;20187;-51
2021/12/04 13:43:18;;;;;;;;;;;4.40;65.80;;;;;;4110294;28;19957;-49
2021/12/04 13:45:21;;;;;;;;;;;4.40;66.30;;;;;;4111639;28;20011;-53
2021/12/04 13:47:24;;;;;;;;;;;4.40;66.90;;;;;;4090504;28;19962;-52
2021/12/04 13:49:32;;;;;;;;;;;4.40;67.70;;;;;;4108842;28;20289;-51
2021/12/04 13:51:35;;;;;;;;;;;4.40;68.30;;;;;;4096622;28;20062;-51
2021/12/04 13:53:38;;;;;;;;;;;4.40;70.60;;;;;;4091755;28;20062;-48
2021/12/04 13:55:43;;;;;;;;;;;4.50;74.60;;;;;;4089296;28;20422;-49
2021/12/04 13:57:45;;;;;;;;;;;4.50;74.90;;;;;;4090250;28;20034;-51
2021/12/04 13:59:47;;;;;;;;;;;4.50;74.00;;;;;;4109069;28;19945;-49
2021/12/04 14:01:49;;;;;;;;;;;4.50;74.30;;;;;;4089019;28;19947;-49
2021/12/04 14:03:58;;;;;;;;;;;4.50;75.90;;;;;;4093564;28;19957;-51
2021/12/04 14:06:00;;;;;;;;;;;4.60;75.70;;;;;;4105487;28;20182;-50
2021/12/04 14:08:05;;;;;;;;;;;4.60;77.00;;;;;;4092427;28;20432;-51
2021/12/04 14:10:30;;;;;;;;;;;4.60;76.70;;;;;;4095175;28;19937;-51
2021/12/04 14:12:32;;;;;;;;;;;4.60;77.40;;;;;;4083529;28;19964;-51
2021/12/04 14:14:35;;;;;;;;;;;4.60;77.40;;;;;;4094577;28;20463;-49
2021/12/04 14:16:37;;;;;;;;;;;4.60;78.20;;;;;;4096040;28;20404;-49
2021/12/04 14:18:42;;;;;;;;;;;4.60;78.50;;;;;;4096644;28;20393;-48
2021/12/04 14:20:52;;;;;;;;;;;4.60;79.80;;;;;;4094957;28;19945;-48
2021/12/04 14:22:55;;;;;;;;;;;4.60;80.00;;;;;;4093326;28;19947;-51
2021/12/04 14:24:59;;;;;;;;;;;4.70;81.70;;;;;;4092670;28;20416;-52
2021/12/04 14:27:05;;;;;;;;;;;4.70;82.20;;;;;;4097084;28;19938;-52
2021/12/04 14:29:14;;;;;;;;;;;4.70;81.70;;;;;;4097423;28;20433;-48
2021/12/04 14:31:21;;;;;;;;;;;4.70;82.90;;;;;;4079894;29;19952;-54
2021/12/04 14:33:24;;;;;;;;;;;4.80;83.60;;;;;;4095005;28;20217;-49
2021/12/04 14:35:32;;;;;;;;;;;4.80;84.80;;;;;;4115004;28;20998;-50
2021/12/04 14:37:42;;;;;;;;;;;4.90;85.50;;;;;;4110850;28;20280;-50
2021/12/04 14:39:48;;;;;;;;;;;4.90;86.40;;;;;;4105189;28;20367;-54
2021/12/04 14:41:50;;;;;;;;;;;5.10;90.70;;;;;;4111038;28;19935;-50
2021/12/04 14:43:52;;;;;;;;;;;5.30;93.60;;;;;;4109774;28;19950;-50
2021/12/04 14:46:04;;;;;;;;;;;5.50;96.10;;;;;;4107518;28;19950;-49
2021/12/04 14:48:08;;;;;;;;;;;6.10;99.90;;;;;;4094745;28;20089;-47
2021/12/04 14:50:10;;;;;;;;;;;6.40;99.90;;;;;;4112697;28;19939;-49
2021/12/04 14:52:16;;;;;;;;;;;6.50;99.90;;;;;;4110614;28;19939;-49
2021/12/04 14:54:31;;;;;;;;;;;6.70;99.90;;;;;;4092918;28;20435;-48
2021/12/04 14:56:33;;;;;;;;;;;6.80;99.90;;;;;;4093683;28;20513;-49
2021/12/04 14:58:36;;;;;;;;;;;6.90;99.90;;;;;;4112064;28;19961;-50
2021/12/04 15:00:39;;;;;;;;;;;7.10;99.90;;;;;;4112335;28;19938;-49
2021/12/04 15:02:53;;;;;;;;;;;7.20;99.90;;;;;;4110740;28;19943;-49
2021/12/04 15:04:55;;;;;;;;;;;7.20;99.90;;;;;;4111456;28;19932;-54
2021/12/04 15:06:57;;;;;;;;;;;7.30;99.90;;;;;;4110721;28;19934;-49
2021/12/04 15:09:09;;;;;;;;;;;7.30;99.90;;;;;;4109735;28;19942;-50
2021/12/04 15:11:19;;;;;;;;;;;7.40;99.90;;;;;;4112411;28;20022;-55
2021/12/04 15:13:23;;;;;;;;;;;7.40;99.90;;;;;;4111519;28;19952;-51
2021/12/04 15:15:29;;;;;;;;;;;7.40;99.90;;;;;;4110892;28;20308;-51
2021/12/04 15:17:31;;;;;;;;;;;7.40;99.90;;;;;;4112773;28;19953;-51
2021/12/04 15:19:53;;;;;;;;;;;7.50;99.90;;;;;;4112847;28;19942;-49
2021/12/04 15:22:16;;;;;;;;;;;7.50;99.90;;;;;;4111423;28;19949;-49
2021/12/04 15:24:42;;;;;;;;;;;7.50;99.90;;;;;;4112204;28;20445;-49
2021/12/04 15:26:53;;;;;;;;;;;7.50;99.90;;;;;;4092765;28;19978;-48
2021/12/04 15:29:03;;;;;;;;;;;7.60;99.90;;;;;;4094788;28;19947;-49
2021/12/04 15:31:05;;;;;;;;;;;7.60;99.90;;;;;;4114068;28;19934;-48